createdAt,value
2022-08-05T00:04:24.922Z,101103.59
2022-08-05T00:09:22.299Z,101043.28
2022-08-05T00:14:19.734Z,101094.72
2022-08-05T00:19:17.433Z,101133.19
2022-08-05T00:24:31.240Z,101104.13
2022-08-05T00:29:37.767Z,101094.31
2022-08-05T00:34:56.931Z,101127.69
2022-08-05T00:39:57.923Z,101084.31
2022-08-05T00:44:56.519Z,101046.03
2022-08-05T00:49:54.700Z,101090.91
2022-08-05T00:54:53.363Z,101004.97
2022-08-05T00:59:54.134Z,101020.97
2022-08-05T01:04:51.788Z,101037.41
2022-08-05T01:09:55.511Z,101029.31
2022-08-05T01:14:58.769Z,101095.22
2022-08-05T01:20:22.263Z,101101.94
2022-08-05T01:25:41.572Z,101115.75
2022-08-05T01:30:46.529Z,101055.59
2022-08-05T01:35:53.413Z,101076.03
2022-08-05T01:40:52.539Z,101077.41
2022-08-05T01:45:56.219Z,101089.13
2022-08-05T01:50:55.435Z,101113.75
2022-08-05T01:55:59.093Z,101020.81
2022-08-05T02:01:06.027Z,101043.19
2022-08-05T02:06:37.892Z,101043.84
2022-08-05T02:11:48.141Z,101050.53
2022-08-05T02:16:54.830Z,101085.88
2022-08-05T02:22:02.239Z,101024.47
2022-08-05T02:27:09.995Z,101055.75
2022-08-05T02:32:24.259Z,101071.41
2022-08-05T02:37:40.065Z,101110.47
2022-08-05T02:42:42.711Z,101070.78
2022-08-05T02:48:45.562Z,100985.69
2022-08-05T02:54:04.048Z,101074.19
2022-08-05T02:59:02.428Z,101124.47
2022-08-05T03:04:14.280Z,101123.78
2022-08-05T03:09:17.874Z,101113.88
2022-08-05T03:14:27.011Z,101131.06
2022-08-05T03:19:33.853Z,101075.91
2022-08-05T03:24:34.034Z,101132.41
2022-08-05T03:29:46.065Z,101074.56
2022-08-05T03:34:55.472Z,101078.41
2022-08-05T03:39:58.990Z,101049.47
2022-08-05T03:44:58.754Z,101074.53
2022-08-05T03:49:56.329Z,101110.84
2022-08-05T03:55:52.149Z,101083.59
2022-08-05T04:00:21.467Z,101078.53
2022-08-05T04:05:23.137Z,101127.97
2022-08-05T04:10:24.200Z,101143.78
2022-08-05T04:15:33.294Z,101139.50
2022-08-05T04:20:41.339Z,101003.97
2022-08-05T04:26:00.413Z,101095.91
2022-08-05T04:31:10.868Z,101109.88
2022-08-05T04:36:45.080Z,101106.00
2022-08-05T04:42:12.026Z,101112.16
2022-08-05T04:48:01.869Z,101133.19
2022-08-05T04:53:29.238Z,101128.75
2022-08-05T05:00:01.607Z,101043.50
2022-08-05T05:05:16.563Z,101017.81
2022-08-05T05:11:05.966Z,100998.09
2022-08-05T05:16:44.619Z,101030.47
2022-08-05T05:21:47.688Z,101048.09
2022-08-05T05:26:46.583Z,101093.59
2022-08-05T05:31:49.929Z,101121.53
2022-08-05T05:36:51.150Z,101038.19
2022-08-05T05:41:54.371Z,101117.69
2022-08-05T05:46:56.583Z,101051.09
2022-08-05T05:51:55.756Z,101042.09
2022-08-05T05:56:58.982Z,101085.09
2022-08-05T06:01:58.218Z,101111.63
2022-08-05T06:07:07.784Z,101086.31
2022-08-05T06:12:12.149Z,101119.63
2022-08-05T06:17:21.954Z,101063.97
2022-08-05T06:22:29.895Z,101117.44
2022-08-05T06:28:11.315Z,101091.63
2022-08-05T06:32:50.691Z,101088.97
2022-08-05T06:37:57.826Z,101086.25
2022-08-05T06:43:04.203Z,101086.31
2022-08-05T06:48:52.857Z,101036.63
2022-08-05T06:53:31.414Z,101009.16
2022-08-05T06:58:47.383Z,101033.69
2022-08-05T07:03:49.838Z,101111.78
2022-08-05T07:08:59.152Z,101076.94
2022-08-05T07:14:29.224Z,101036.59
2022-08-05T07:25:21.828Z,101060.94
2022-08-05T07:30:30.685Z,101084.28
2022-08-05T07:36:02.995Z,101101.13
2022-08-05T07:41:16.514Z,101075.03
2022-08-05T07:46:25.687Z,101039.44
2022-08-05T07:51:40.421Z,101080.88
2022-08-05T07:57:13.611Z,101051.66
2022-08-05T08:02:15.325Z,101069.88
2022-08-05T08:07:22.456Z,101010.97
2022-08-05T08:12:37.143Z,101036.16
2022-08-05T08:17:36.995Z,101085.31
2022-08-05T08:22:35.607Z,101023.31
2022-08-05T08:27:44.851Z,100983.94
2022-08-05T08:32:48.367Z,101059.31
2022-08-05T08:38:16.402Z,100983.34
2022-08-05T08:45:20.313Z,101074.44
2022-08-05T08:50:22.384Z,101071.50
2022-08-05T08:55:19.449Z,101027.78
2022-08-05T09:00:33.773Z,101059.25
2022-08-05T09:05:38.221Z,101044.09
2022-08-05T09:16:34.783Z,101057.59
2022-08-05T09:28:08.902Z,101041.41
2022-08-05T09:33:18.934Z,100956.16
2022-08-05T09:38:29.605Z,101016.69
2022-08-05T09:49:54.762Z,101002.75
2022-08-05T09:54:52.669Z,101025.19
2022-08-05T09:59:55.262Z,100950.50
2022-08-05T10:05:21.443Z,100927.63
2022-08-05T10:11:12.924Z,100931.84
2022-08-05T10:16:30.501Z,100989.75
2022-08-05T10:21:42.395Z,100922.25
2022-08-05T10:26:51.604Z,100947.56
2022-08-05T10:32:52.604Z,100922.81
2022-08-05T10:37:21.833Z,100918.72
2022-08-05T10:42:54.419Z,100966.66
2022-08-05T10:48:52.308Z,100894.44
2022-08-05T10:54:01.523Z,100893.91
2022-08-05T11:00:03.391Z,100873.00
2022-08-05T11:04:55.495Z,100938.69
2022-08-05T11:10:03.627Z,100861.50
2022-08-05T11:15:58.870Z,100896.81
2022-08-05T11:21:12.968Z,100918.66
2022-08-05T11:26:32.050Z,100863.50
2022-08-05T11:31:56.778Z,100909.44
2022-08-05T11:37:01.959Z,100909.59
2022-08-05T11:42:28.016Z,100836.94
2022-08-05T11:47:49.763Z,100895.44
2022-08-05T11:53:11.644Z,100908.44
2022-08-05T11:58:19.160Z,100922.84
2022-08-05T12:03:28.639Z,100929.97
2022-08-05T12:08:31.441Z,100849.84
2022-08-05T12:13:48.790Z,100839.38
2022-08-05T12:18:52.186Z,100892.38
2022-08-05T12:23:59.867Z,100880.84
2022-08-05T12:28:58.376Z,100843.69
2022-08-05T12:33:56.887Z,100847.09
2022-08-05T12:39:00.402Z,100900.50
2022-08-05T12:44:34.371Z,100822.09
2022-08-05T12:50:04.369Z,100864.81
2022-08-05T12:55:00.753Z,100861.78
2022-08-05T13:02:01.451Z,100878.13
2022-08-05T13:05:43.044Z,100849.16
2022-08-05T13:10:50.621Z,100837.09
2022-08-05T13:15:52.832Z,100835.91
2022-08-05T13:21:21.161Z,100769.38
2022-08-05T13:26:30.330Z,100793.09
2022-08-05T13:31:33.899Z,100776.47
2022-08-05T13:36:45.923Z,100780.50
2022-08-05T13:41:45.567Z,100789.41
2022-08-05T13:47:02.438Z,100825.56
2022-08-05T13:52:11.228Z,100748.66
2022-08-05T13:57:10.338Z,100782.56
2022-08-05T14:02:42.356Z,100751.06
2022-08-05T14:08:00.249Z,100795.75
2022-08-05T14:13:07.655Z,100765.03
2022-08-05T14:18:05.236Z,100737.06
2022-08-05T14:23:19.295Z,100725.03
2022-08-05T14:28:52.421Z,100811.34
2022-08-05T14:34:11.865Z,100773.72
2022-08-05T14:39:23.167Z,100771.75
2022-08-05T14:44:48.555Z,100678.84
2022-08-05T14:49:59.505Z,100708.06
2022-08-05T14:54:59.020Z,100791.88
2022-08-05T15:00:04.755Z,100752.94
2022-08-05T15:05:17.482Z,100718.72
2022-08-05T15:10:19.619Z,100746.78
2022-08-05T15:15:55.222Z,100673.75
2022-08-05T15:21:07.581Z,100732.31
2022-08-05T15:26:32.203Z,100696.03
2022-08-05T15:31:55.480Z,100714.41
2022-08-05T15:37:19.367Z,100707.31
2022-08-05T15:42:55.709Z,100765.59
2022-08-05T15:47:58.966Z,100716.06
2022-08-05T15:53:15.811Z,100729.13
2022-08-05T15:58:23.282Z,100671.66
2022-08-05T16:03:22.403Z,100733.78
2022-08-05T16:08:19.621Z,100687.88
2022-08-05T16:13:34.770Z,100733.38
2022-08-05T16:24:41.247Z,100750.97
2022-08-05T16:29:50.986Z,100660.63
2022-08-05T16:34:52.347Z,100701.06
2022-08-05T16:40:04.852Z,100730.91
2022-08-05T16:46:06.566Z,100644.00
2022-08-05T16:50:28.972Z,100734.25
2022-08-05T16:55:46.344Z,100757.63
2022-08-05T17:00:48.189Z,100764.06
2022-08-05T17:05:59.821Z,100758.38
2022-08-05T17:11:05.795Z,100758.13
2022-08-05T17:16:30.155Z,100767.84
2022-08-05T17:21:36.358Z,100747.88
2022-08-05T17:26:40.805Z,100753.13
2022-08-05T17:31:56.623Z,100757.16
2022-08-05T17:37:01.336Z,100777.22
2022-08-05T17:42:28.495Z,100775.19
2022-08-05T17:47:36.050Z,100709.16
2022-08-05T17:52:56.327Z,100769.06
2022-08-05T17:57:58.092Z,100745.50
2022-08-05T18:02:57.352Z,100772.69
2022-08-05T18:07:59.151Z,100777.09
2022-08-05T18:12:56.770Z,100738.47
2022-08-05T18:18:01.504Z,100811.44
2022-08-05T18:23:09.487Z,100694.47
2022-08-05T18:28:16.085Z,100789.50
2022-08-05T18:33:22.984Z,100818.13
2022-08-05T18:38:26.687Z,100768.97
2022-08-05T18:43:31.584Z,100797.81
2022-08-05T18:49:03.971Z,100825.66
2022-08-05T18:54:13.357Z,100801.75
2022-08-05T18:59:43.212Z,100732.41
2022-08-05T19:04:32.770Z,100814.59
2022-08-05T19:09:40.021Z,100777.28
2022-08-05T19:14:59.719Z,100752.72
2022-08-05T19:20:10.840Z,100834.31
2022-08-05T19:25:29.675Z,100733.56
2022-08-05T19:30:48.835Z,100801.81
2022-08-05T19:35:56.586Z,100806.03
2022-08-05T19:41:06.973Z,100790.00
2022-08-05T19:46:29.130Z,100767.47
2022-08-05T19:52:09.240Z,100804.41
2022-08-05T19:56:51.523Z,100795.03
2022-08-05T20:02:03.226Z,100744.97
2022-08-05T20:07:10.304Z,100812.78
2022-08-05T20:12:46.002Z,100769.81
2022-08-05T20:17:59.141Z,100804.03
2022-08-05T20:23:04.217Z,100718.47
2022-08-05T20:28:06.637Z,100763.13
2022-08-05T20:33:08.580Z,100772.91
2022-08-05T20:38:11.258Z,100770.41
2022-08-05T20:43:33.390Z,100796.50
2022-08-05T20:48:43.890Z,100764.38
2022-08-05T20:53:43.558Z,100783.13
2022-08-05T20:59:00.026Z,100789.38
2022-08-05T21:04:11.132Z,100773.13
2022-08-05T21:09:15.309Z,100744.47
2022-08-05T21:14:13.495Z,100772.47
2022-08-05T21:19:12.753Z,100784.78
2022-08-05T21:24:15.901Z,100784.38
2022-08-05T21:29:16.811Z,100810.25
2022-08-05T21:34:24.074Z,100745.09
2022-08-05T21:39:29.033Z,100775.41
2022-08-05T21:44:35.573Z,100772.50
2022-08-05T21:49:59.397Z,100748.63
2022-08-05T21:55:06.311Z,100745.72
2022-08-05T22:00:11.761Z,100738.19
2022-08-05T22:05:20.999Z,100699.75
2022-08-05T22:10:31.051Z,100807.88
2022-08-05T22:15:57.196Z,100687.72
2022-08-05T22:20:51.721Z,100712.13
2022-08-05T22:26:09.922Z,100816.38
2022-08-05T22:31:12.430Z,100780.44
2022-08-05T22:36:14.733Z,100715.09
2022-08-05T22:41:12.500Z,100722.50
2022-08-05T22:46:20.985Z,100798.84
2022-08-05T22:51:23.220Z,100789.69
2022-08-05T22:56:39.959Z,100767.53
2022-08-05T23:01:50.798Z,100693.94
2022-08-05T23:07:13.116Z,100725.66
2022-08-05T23:12:12.372Z,100698.56
2022-08-05T23:17:34.887Z,100790.91
2022-08-05T23:22:35.353Z,100690.63
2022-08-05T23:27:42.416Z,100691.03
2022-08-05T23:32:57.574Z,100716.69
2022-08-05T23:37:56.815Z,100776.47
2022-08-05T23:42:57.022Z,100673.16
2022-08-05T23:48:04.424Z,100672.44
2022-08-05T23:53:04.321Z,100747.69
2022-08-05T23:58:44.429Z,100697.31
